Time;durP1;ratioP1;P1;durP2;ratioP2;P2;SDS_P1;SDS_P2;PMS_P1;PMS_P2;Temp;Humidity;BMP_temperature;BMP_pressure;BME280_temperature;BME280_humidity;BME280_pressure;Samples;Min_cycle;Max_cycle;Signal;HPM_P1;HPM_P2
2022/05/18 00:00:38;;;;;;;4.90;1.90;;;9.80;99.90;;;;;;8334149;28;20210;-78
2022/05/18 00:04:39;;;;;;;1.73;1.40;;;9.80;99.90;;;;;;8329726;28;20263;-78
2022/05/18 00:08:40;;;;;;;2.93;1.50;;;9.70;99.90;;;;;;8332511;28;20319;-78
2022/05/18 00:12:49;;;;;;;7.43;1.70;;;9.60;99.90;;;;;;8330619;28;20210;-77
2022/05/18 00:16:50;;;;;;;7.20;1.77;;;9.50;99.90;;;;;;8324131;28;20214;-78
2022/05/18 00:20:51;;;;;;;2.63;1.47;;;9.50;99.90;;;;;;8327166;28;20518;-78
2022/05/18 00:24:52;;;;;;;4.23;1.87;;;9.30;99.90;;;;;;8331632;28;20243;-78
2022/05/18 00:28:53;;;;;;;2.07;1.23;;;9.30;99.90;;;;;;8330835;28;20205;-77
2022/05/18 00:32:54;;;;;;;5.10;1.50;;;9.20;99.90;;;;;;8329325;28;20209;-78
2022/05/18 00:36:55;;;;;;;2.73;1.10;;;9.10;99.90;;;;;;8327674;28;20212;-78
2022/05/18 00:40:56;;;;;;;3.23;1.70;;;9.10;99.90;;;;;;8331030;28;20206;-79
2022/05/18 00:44:57;;;;;;;4.83;1.20;;;9.00;99.90;;;;;;8326142;28;20190;-77
2022/05/18 00:48:58;;;;;;;2.73;1.10;;;9.00;99.90;;;;;;8323052;28;20236;-79
2022/05/18 00:53:01;;;;;;;2.90;1.23;;;8.90;99.90;;;;;;8334573;28;20186;-77
2022/05/18 00:57:08;;;;;;;2.63;1.33;;;8.80;99.90;;;;;;8349728;28;20209;-76
2022/05/18 01:01:10;;;;;;;1.80;1.40;;;8.70;99.90;;;;;;8333947;28;20181;-77
2022/05/18 01:05:17;;;;;;;1.57;1.10;;;8.60;99.90;;;;;;8321986;28;20190;-80
2022/05/18 01:09:33;;;;;;;3.07;1.33;;;8.50;99.90;;;;;;8329461;28;20516;-77
2022/05/18 01:13:34;;;;;;;1.93;1.17;;;8.40;99.90;;;;;;8329024;28;20214;-77
2022/05/18 01:17:38;;;;;;;3.43;1.40;;;8.30;99.90;;;;;;8341335;28;20218;-77
2022/05/18 01:21:50;;;;;;;2.13;1.40;;;8.30;99.90;;;;;;8323502;28;20530;-77
2022/05/18 01:26:12;;;;;;;1.60;1.37;;;8.30;99.90;;;;;;8333616;28;20201;-77
2022/05/18 01:30:13;;;;;;;1.50;1.20;;;8.30;99.90;;;;;;8321687;28;20211;-77
2022/05/18 01:34:15;;;;;;;1.73;1.30;;;8.30;99.90;;;;;;8318311;28;20313;-78
2022/05/18 01:38:17;;;;;;;4.70;1.40;;;8.40;99.90;;;;;;8332564;28;20292;-78
2022/05/18 01:42:33;;;;;;;3.53;1.67;;;8.30;98.20;;;;;;8329379;28;20278;-78
2022/05/18 01:46:34;;;;;;;1.13;0.97;;;8.20;99.90;;;;;;8333431;28;20198;-78
2022/05/18 01:50:35;;;;;;;2.20;1.20;;;8.10;99.90;;;;;;8332613;28;20205;-77
2022/05/18 01:54:43;;;;;;;1.57;1.30;;;8.00;99.90;;;;;;8324847;28;20198;-77
2022/05/18 01:58:44;;;;;;;3.93;1.67;;;7.80;99.90;;;;;;8309213;28;20248;-78
2022/05/18 02:02:45;;;;;;;1.63;1.13;;;7.70;99.90;;;;;;8324377;28;20275;-78
2022/05/18 02:06:46;;;;;;;3.17;2.20;;;7.60;99.90;;;;;;8327185;28;20285;-78
2022/05/18 02:10:47;;;;;;;1.63;1.20;;;7.40;99.90;;;;;;8336052;28;20182;-77
2022/05/18 02:14:48;;;;;;;2.37;1.43;;;7.30;99.90;;;;;;8332348;28;20240;-79
2022/05/18 02:18:49;;;;;;;1.73;1.20;;;7.20;99.90;;;;;;8327885;28;20186;-78
2022/05/18 02:22:51;;;;;;;1.73;1.20;;;7.10;99.90;;;;;;8324777;28;20185;-79
2022/05/18 02:26:52;;;;;;;1.50;0.90;;;7.10;99.90;;;;;;8323961;28;20198;-78
2022/05/18 02:30:53;;;;;;;3.13;1.20;;;7.30;99.90;;;;;;8325778;28;20198;-78
2022/05/18 02:34:54;;;;;;;1.57;1.00;;;7.30;99.90;;;;;;8328579;28;20201;-77
2022/05/18 02:38:55;;;;;;;4.00;1.13;;;7.30;99.90;;;;;;8321587;28;20290;-77
2022/05/18 02:42:56;;;;;;;1.67;1.10;;;7.20;99.90;;;;;;8322963;28;20327;-79
2022/05/18 02:46:59;;;;;;;2.57;1.60;;;7.10;99.90;;;;;;8328071;28;20206;-79
2022/05/18 02:51:00;;;;;;;3.70;1.70;;;7.00;99.90;;;;;;8328197;28;20197;-78
2022/05/18 02:59:22;;;;;;;2.17;1.40;;;6.90;99.90;;;;;;8340265;28;20189;-79
2022/05/18 03:03:23;;;;;;;3.07;1.20;;;6.70;99.90;;;;;;8321757;28;20182;-78
2022/05/18 03:07:24;;;;;;;1.77;1.20;;;6.60;99.90;;;;;;8335594;28;20240;-79
2022/05/18 03:11:25;;;;;;;1.90;1.30;;;6.50;99.90;;;;;;8331164;28;20194;-78
2022/05/18 03:15:26;;;;;;;2.30;1.00;;;6.50;1.00;;;;;;8328578;28;20213;-78
2022/05/18 03:19:28;;;;;;;3.33;1.27;;;6.50;1.00;;;;;;8345847;28;20186;-80
2022/05/18 03:23:35;;;;;;;3.77;1.50;;;6.50;1.00;;;;;;8323994;28;20197;-77
2022/05/18 03:27:45;;;;;;;2.30;1.07;;;6.70;99.90;;;;;;8334583;28;20208;-75
2022/05/18 03:31:47;;;;;;;3.37;1.30;;;7.00;99.90;;;;;;8333201;28;20255;-76
2022/05/18 03:35:48;;;;;;;3.23;1.07;;;7.10;99.90;;;;;;8347475;28;20208;-80
2022/05/18 03:39:51;;;;;;;2.23;1.50;;;7.30;99.90;;;;;;8325865;28;20226;-76
2022/05/18 03:43:52;;;;;;;1.03;0.90;;;7.50;31.30;;;;;;8307949;28;20189;-76
2022/05/18 03:47:52;;;;;;;2.50;1.10;;;8.00;1.00;;;;;;8345768;28;20196;-79
2022/05/18 03:51:53;;;;;;;1.77;1.10;;;9.20;99.90;;;;;;8326647;28;20190;-80
2022/05/18 03:55:55;;;;;;;2.23;1.17;;;10.40;99.90;;;;;;8335126;28;20223;-81
2022/05/18 03:59:55;;;;;;;2.10;1.10;;;11.40;99.90;;;;;;8343299;28;20187;-77
2022/05/18 04:03:56;;;;;;;1.97;1.07;;;12.10;92.60;;;;;;8331120;28;20188;-80
2022/05/18 04:07:57;;;;;;;2.90;1.30;;;12.90;36.90;;;;;;8317664;28;20269;-79
2022/05/18 04:12:01;;;;;;;1.10;0.90;;;13.30;3.00;;;;;;8329491;28;20193;-77
2022/05/18 04:16:02;;;;;;;2.10;1.10;;;13.60;1.00;;;;;;8330120;28;20296;-75
2022/05/18 04:20:05;;;;;;;3.83;1.23;;;14.00;1.00;;;;;;8325800;28;20181;-79
2022/05/18 04:24:06;;;;;;;3.93;1.00;;;14.60;1.00;;;;;;8324807;28;20223;-75
2022/05/18 04:28:08;;;;;;;1.63;0.80;;;15.10;1.00;;;;;;8327830;28;20255;-77
2022/05/18 04:32:09;;;;;;;1.70;0.90;;;15.50;1.00;;;;;;8324654;28;20189;-80
2022/05/18 04:36:10;;;;;;;1.97;1.07;;;15.80;1.00;;;;;;8337600;28;20209;-79
2022/05/18 04:40:12;;;;;;;1.43;0.80;;;15.80;1.00;;;;;;8329641;28;20198;-80
2022/05/18 04:44:12;;;;;;;2.40;1.20;;;15.90;1.00;;;;;;8339618;28;20262;-75
2022/05/18 04:48:15;;;;;;;1.90;0.80;;;16.00;1.00;;;;;;8324879;28;20198;-75
2022/05/18 04:52:17;;;;;;;1.13;0.90;;;15.90;1.00;;;;;;8340502;28;20273;-76
2022/05/18 04:56:18;;;;;;;2.27;1.00;;;15.90;1.00;;;;;;8328653;28;20214;-78
2022/05/18 05:00:19;;;;;;;4.03;1.30;;;15.80;1.00;;;;;;8328707;28;20276;-77
2022/05/18 05:04:19;;;;;;;1.30;0.90;;;15.60;1.00;;;;;;8344071;28;20206;-76
2022/05/18 05:08:20;;;;;;;3.73;1.03;;;14.80;1.00;;;;;;8327837;28;20638;-75
2022/05/18 05:12:21;;;;;;;2.40;1.10;;;14.00;1.00;;;;;;8344195;28;20201;-77
2022/05/18 05:16:22;;;;;;;2.17;1.13;;;13.40;1.00;;;;;;8321796;28;20206;-77
2022/05/18 05:20:23;;;;;;;3.37;1.10;;;13.10;1.00;;;;;;8323354;28;20181;-79
2022/05/18 05:24:24;;;;;;;3.37;1.30;;;12.80;1.00;;;;;;8321444;28;20269;-75
2022/05/18 05:28:25;;;;;;;2.77;1.33;;;12.70;1.00;;;;;;8328008;28;20264;-79
2022/05/18 05:32:27;;;;;;;5.13;1.40;;;12.70;1.00;;;;;;8321910;28;20194;-75
2022/05/18 05:36:28;;;;;;;1.87;0.90;;;12.60;1.00;;;;;;8346881;28;20229;-75
2022/05/18 05:40:29;;;;;;;3.63;1.20;;;12.50;1.00;;;;;;8325496;28;20212;-78
2022/05/18 05:44:30;;;;;;;2.53;1.30;;;12.40;1.00;;;;;;8338505;28;20276;-75
2022/05/18 05:48:33;;;;;;;4.90;1.47;;;12.40;5.20;;;;;;8318574;28;20423;-74
2022/05/18 05:52:34;;;;;;;1.93;1.20;;;12.40;24.60;;;;;;8319095;28;20184;-78
2022/05/18 05:56:35;;;;;;;3.60;1.10;;;12.40;28.90;;;;;;8327881;28;20209;-77
2022/05/18 06:00:36;;;;;;;3.63;1.10;;;12.60;24.20;;;;;;8331990;28;20219;-78
2022/05/18 06:04:37;;;;;;;3.20;1.30;;;12.70;23.20;;;;;;8333510;28;20186;-75
2022/05/18 06:08:41;;;;;;;2.87;1.40;;;12.80;28.90;;;;;;8348113;28;20251;-74
2022/05/18 06:12:42;;;;;;;5.73;1.50;;;13.00;52.80;;;;;;8305134;28;20220;-76
2022/05/18 06:16:46;;;;;;;2.50;1.40;;;13.20;14.40;;;;;;8334466;28;20221;-75
2022/05/18 06:20:49;;;;;;;5.43;1.60;;;13.30;22.80;;;;;;8322843;28;20276;-77
2022/05/18 06:24:51;;;;;;;4.07;1.70;;;13.40;6.30;;;;;;8324101;28;20190;-76
2022/05/18 06:28:53;;;;;;;3.07;1.40;;;13.50;14.60;;;;;;8326372;28;20207;-75
2022/05/18 06:32:54;;;;;;;2.47;1.33;;;13.60;28.60;;;;;;8322396;28;20298;-75
2022/05/18 06:36:55;;;;;;;3.67;1.77;;;13.50;32.10;;;;;;8341041;28;20453;-77
2022/05/18 06:45:16;;;;;;;4.27;1.60;;;13.80;27.00;;;;;;8337362;28;20239;-75
2022/05/18 06:49:18;;;;;;;2.60;1.70;;;14.00;38.10;;;;;;8321614;28;20182;-80
2022/05/18 06:53:19;;;;;;;2.17;1.47;;;14.20;7.00;;;;;;8328346;28;20252;-75
2022/05/18 06:57:20;;;;;;;2.90;1.40;;;14.40;42.20;;;;;;8335743;28;20210;-77
2022/05/18 07:01:22;;;;;;;5.77;1.63;;;14.70;51.90;;;;;;8329869;28;20273;-75
2022/05/18 07:05:23;;;;;;;3.73;1.37;;;15.10;1.80;;;;;;8322770;28;20186;-77
2022/05/18 07:09:24;;;;;;;6.33;1.73;;;15.30;8.70;;;;;;8321486;28;20243;-75
2022/05/18 07:13:24;;;;;;;4.70;1.50;;;15.50;1.00;;;;;;8323160;28;20262;-76
2022/05/18 07:17:25;;;;;;;5.43;2.57;;;15.40;1.00;;;;;;8339332;28;20213;-76
2022/05/18 07:21:28;;;;;;;4.20;1.70;;;15.40;1.00;;;;;;8319638;28;20190;-77
2022/05/18 07:25:28;;;;;;;6.03;1.37;;;15.40;1.00;;;;;;8317240;28;20183;-77
2022/05/18 07:29:29;;;;;;;5.67;1.70;;;15.50;1.00;;;;;;8327136;28;20286;-75
2022/05/18 07:33:30;;;;;;;3.90;2.10;;;15.70;1.00;;;;;;8319489;28;20225;-78
2022/05/18 07:37:31;;;;;;;3.47;2.03;;;15.90;1.00;;;;;;8340607;28;20206;-79
2022/05/18 07:41:32;;;;;;;3.13;1.70;;;15.90;1.00;;;;;;8328460;28;20235;-76
2022/05/18 07:45:35;;;;;;;3.87;1.60;;;16.00;1.00;;;;;;8342166;28;20185;-75
2022/05/18 07:49:38;;;;;;;5.07;1.97;;;16.00;1.00;;;;;;8338886;28;20270;-75
2022/05/18 07:53:39;;;;;;;2.57;1.27;;;16.20;1.00;;;;;;8321611;28;20189;-77
2022/05/18 07:57:40;;;;;;;4.80;1.47;;;16.40;1.00;;;;;;8330666;28;20233;-77
2022/05/18 08:01:42;;;;;;;2.63;1.57;;;16.50;1.00;;;;;;8321738;28;20183;-79
2022/05/18 08:05:45;;;;;;;5.17;1.47;;;16.70;1.00;;;;;;8323857;28;20190;-75
2022/05/18 08:18:25;;;;;;;3.40;1.20;;;17.00;1.00;;;;;;8343487;28;20229;-77
2022/05/18 08:22:27;;;;;;;3.57;1.87;;;17.10;1.00;;;;;;8324405;28;20214;-76
2022/05/18 08:26:30;;;;;;;4.07;1.77;;;17.10;1.00;;;;;;8308311;28;20247;-75
2022/05/18 08:30:31;;;;;;;2.37;1.30;;;17.20;1.00;;;;;;8326945;28;20197;-75
2022/05/18 08:34:33;;;;;;;4.83;1.40;;;17.30;1.00;;;;;;8322162;28;20189;-75
2022/05/18 08:38:35;;;;;;;2.17;1.17;;;17.40;1.00;;;;;;8325257;28;20256;-75
2022/05/18 08:42:36;;;;;;;7.47;1.30;;;17.50;1.00;;;;;;8348964;28;20214;-78
2022/05/18 08:47:01;;;;;;;3.17;1.30;;;17.60;1.00;;;;;;8326568;28;20218;-79
2022/05/18 08:51:05;;;;;;;3.00;1.30;;;17.80;1.00;;;;;;8326461;28;20189;-78
2022/05/18 08:55:30;;;;;;;2.70;1.17;;;17.80;1.00;;;;;;8340566;28;20186;-75
2022/05/18 08:59:37;;;;;;;2.70;1.00;;;17.90;1.00;;;;;;8345208;28;20182;-78
2022/05/18 09:03:45;;;;;;;3.53;1.20;;;18.00;1.00;;;;;;8327986;28;20185;-75
2022/05/18 09:08:03;;;;;;;3.27;1.10;;;18.10;1.00;;;;;;8331042;28;20186;-79
2022/05/18 09:12:05;;;;;;;2.50;0.90;;;18.20;1.00;;;;;;8324721;28;20226;-75
2022/05/18 09:16:33;;;;;;;3.80;1.10;;;18.30;1.00;;;;;;8324423;28;20213;-78
2022/05/18 09:20:54;;;;;;;3.40;0.90;;;18.40;1.00;;;;;;8333694;28;20540;-77
2022/05/18 09:25:13;;;;;;;2.50;0.80;;;18.60;1.00;;;;;;8329108;28;20169;-78
2022/05/18 09:29:24;;;;;;;1.43;0.70;;;18.70;1.00;;;;;;8322664;28;20275;-77
2022/05/18 09:34:07;;;;;;;1.60;0.90;;;18.90;1.00;;;;;;8322291;28;20183;-75
2022/05/18 09:38:31;;;;;;;1.53;0.90;;;19.00;1.00;;;;;;8308547;28;20228;-78
2022/05/18 09:42:37;;;;;;;2.60;0.80;;;19.10;1.00;;;;;;8332167;28;20209;-75
2022/05/18 09:46:42;;;;;;;5.17;1.87;;;19.20;1.00;;;;;;8319683;28;20198;-76
2022/05/18 09:50:45;;;;;;;1.90;1.00;;;19.30;1.00;;;;;;8333254;28;20182;-75
2022/05/18 09:54:53;;;;;;;3.77;1.00;;;19.40;1.00;;;;;;8321771;28;20206;-76
2022/05/18 09:58:58;;;;;;;3.07;1.00;;;19.60;1.00;;;;;;8331994;28;20325;-78
2022/05/18 10:07:34;;;;;;;2.27;1.40;;;19.90;1.00;;;;;;8334885;28;20214;-79
2022/05/18 10:11:39;;;;;;;3.83;2.00;;;19.90;1.00;;;;;;8326598;28;20673;-76
2022/05/18 10:15:48;;;;;;;4.43;1.33;;;20.00;1.00;;;;;;8320762;28;20202;-80
2022/05/18 10:19:57;;;;;;;3.77;0.90;;;20.00;1.00;;;;;;8323985;28;20183;-77
2022/05/18 10:24:03;;;;;;;2.90;1.10;;;20.00;1.00;;;;;;8324322;28;20213;-79
2022/05/18 10:28:19;;;;;;;3.20;0.70;;;20.10;1.00;;;;;;8331628;28;20198;-79
2022/05/18 10:32:22;;;;;;;1.30;0.70;;;20.30;1.00;;;;;;8325323;28;20247;-78
2022/05/18 10:36:27;;;;;;;1.30;0.83;;;20.40;1.00;;;;;;8320088;28;20256;-77
2022/05/18 10:40:29;;;;;;;2.87;1.67;;;20.40;1.00;;;;;;8339776;28;20208;-75
2022/05/18 10:44:34;;;;;;;4.63;1.20;;;20.50;1.00;;;;;;8329209;28;20236;-77
2022/05/18 10:48:36;;;;;;;1.00;0.63;;;20.60;1.00;;;;;;8344122;28;20190;-75
2022/05/18 10:52:37;;;;;;;4.83;0.90;;;20.60;1.00;;;;;;8328296;28;20209;-78
2022/05/18 10:56:38;;;;;;;3.20;1.00;;;20.80;1.00;;;;;;8341846;28;20237;-75
2022/05/18 11:00:52;;;;;;;1.03;0.60;;;20.70;1.00;;;;;;8326176;28;20209;-76
2022/05/18 11:05:01;;;;;;;0.83;0.50;;;20.70;1.00;;;;;;8324304;28;20276;-76
2022/05/18 11:09:07;;;;;;;1.43;0.60;;;20.80;1.00;;;;;;8324340;28;20182;-75
2022/05/18 11:13:26;;;;;;;2.63;0.70;;;20.90;1.00;;;;;;8321658;28;20192;-76
2022/05/18 11:17:30;;;;;;;2.30;0.80;;;21.10;1.00;;;;;;8326894;28;20268;-75
2022/05/18 11:22:14;;;;;;;1.20;0.80;;;21.20;1.00;;;;;;8332309;28;20182;-76
2022/05/18 11:26:27;;;;;;;3.67;0.83;;;21.40;1.00;;;;;;8320845;28;20265;-75
2022/05/18 11:30:52;;;;;;;4.00;0.80;;;21.40;1.00;;;;;;8325115;28;20495;-75
2022/05/18 11:35:20;;;;;;;2.57;0.50;;;21.50;1.00;;;;;;8348537;28;20193;-77
2022/05/18 11:39:36;;;;;;;2.90;1.07;;;21.50;1.00;;;;;;8325452;28;20202;-76
2022/05/18 11:44:04;;;;;;;3.23;0.90;;;21.40;1.00;;;;;;8324094;28;20476;-75
2022/05/18 11:48:22;;;;;;;2.07;1.00;;;21.40;1.00;;;;;;8326568;28;20189;-77
2022/05/18 11:52:46;;;;;;;2.77;0.60;;;21.30;1.00;;;;;;8327970;28;20192;-76
2022/05/18 11:56:51;;;;;;;3.20;0.63;;;21.30;1.00;;;;;;8318243;28;20213;-77
2022/05/18 12:01:01;;;;;;;3.03;0.67;;;21.40;1.00;;;;;;8337506;28;20265;-78
2022/05/18 12:05:26;;;;;;;1.13;0.70;;;21.40;1.00;;;;;;8326827;28;20182;-80
2022/05/18 12:09:43;;;;;;;2.73;0.90;;;21.50;1.00;;;;;;8325253;28;20224;-77
2022/05/18 12:14:02;;;;;;;3.07;0.77;;;21.50;1.00;;;;;;8328509;28;20186;-75
2022/05/18 12:18:31;;;;;;;5.37;1.30;;;21.70;1.00;;;;;;8336928;28;20222;-77
2022/05/18 12:22:50;;;;;;;2.60;0.87;;;21.70;1.00;;;;;;8311187;28;20201;-76
2022/05/18 12:26:53;;;;;;;1.20;0.60;;;21.80;1.00;;;;;;8328579;28;20279;-78
2022/05/18 12:30:56;;;;;;;4.00;0.80;;;21.80;1.00;;;;;;8330449;28;20186;-76
2022/05/18 12:35:08;;;;;;;2.73;1.10;;;21.80;1.00;;;;;;8325712;28;20186;-76
2022/05/18 12:39:31;;;;;;;3.93;0.77;;;21.90;1.00;;;;;;8344197;28;20205;-76
2022/05/18 12:43:39;;;;;;;4.83;0.87;;;21.90;1.00;;;;;;8333617;28;20182;-76
2022/05/18 12:47:52;;;;;;;3.90;0.70;;;21.90;1.00;;;;;;8330247;28;20187;-77
2022/05/18 12:52:05;;;;;;;4.20;0.90;;;21.90;1.00;;;;;;8325726;28;20187;-77
2022/05/18 12:56:35;;;;;;;2.30;0.60;;;21.90;1.00;;;;;;8336041;28;20202;-77
2022/05/18 13:00:45;;;;;;;2.90;0.63;;;21.90;1.00;;;;;;8344248;28;20185;-77
2022/05/18 13:04:46;;;;;;;2.17;0.90;;;21.90;1.00;;;;;;8343722;28;20641;-76
2022/05/18 13:09:25;;;;;;;2.07;0.80;;;21.90;1.00;;;;;;8326143;28;20186;-80
2022/05/18 13:13:26;;;;;;;5.20;0.80;;;21.90;1.00;;;;;;8273238;28;20186;-81
2022/05/18 13:17:46;;;;;;;2.07;0.70;;;22.00;1.00;;;;;;8321535;28;20276;-80
2022/05/18 13:21:58;;;;;;;3.53;0.70;;;22.20;1.00;;;;;;8321249;28;20189;-76
2022/05/18 13:26:05;;;;;;;1.17;0.70;;;22.10;1.00;;;;;;8323312;28;20219;-80
2022/05/18 13:30:16;;;;;;;1.63;0.80;;;22.10;1.00;;;;;;8339601;28;20206;-78
2022/05/18 13:34:39;;;;;;;1.97;0.80;;;22.10;1.00;;;;;;8339581;28;20174;-77
2022/05/18 13:38:41;;;;;;;2.03;1.10;;;22.10;1.00;;;;;;8327585;28;20213;-75
2022/05/18 13:42:43;;;;;;;3.10;0.70;;;22.20;1.00;;;;;;8329472;28;20179;-77
2022/05/18 13:46:46;;;;;;;1.27;0.83;;;22.20;1.00;;;;;;8327013;28;20178;-77
2022/05/18 13:51:03;;;;;;;1.40;0.70;;;22.20;1.00;;;;;;8315816;28;20234;-75
2022/05/18 13:55:08;;;;;;;1.47;0.80;;;22.20;1.00;;;;;;8340928;28;20214;-77
2022/05/18 13:59:16;;;;;;;1.23;0.70;;;22.10;1.00;;;;;;8332739;28;20209;-79
2022/05/18 14:03:20;;;;;;;1.47;0.57;;;22.20;1.00;;;;;;8309760;28;20210;-77
2022/05/18 14:07:22;;;;;;;1.57;0.70;;;22.20;1.00;;;;;;8324885;28;20191;-77
2022/05/18 14:11:26;;;;;;;1.93;0.70;;;22.20;1.00;;;;;;8322623;28;20229;-76
2022/05/18 14:15:31;;;;;;;0.90;0.63;;;22.10;1.00;;;;;;8321687;28;20293;-79
2022/05/18 14:19:39;;;;;;;1.27;0.63;;;22.00;1.00;;;;;;8322202;28;20273;-75
2022/05/18 14:24:01;;;;;;;5.03;0.70;;;22.10;1.00;;;;;;8326583;28;20239;-76
2022/05/18 14:28:08;;;;;;;2.63;0.73;;;22.10;1.00;;;;;;8328010;28;20263;-77
2022/05/18 14:32:29;;;;;;;1.90;0.70;;;22.10;1.00;;;;;;8319969;28;20194;-76
2022/05/18 14:36:35;;;;;;;2.30;0.60;;;22.00;1.00;;;;;;8324765;28;20202;-77
2022/05/18 14:40:46;;;;;;;1.63;0.53;;;22.00;1.00;;;;;;8320460;28;20284;-80
2022/05/18 14:44:48;;;;;;;2.93;0.80;;;21.90;1.00;;;;;;8326856;28;20182;-80
2022/05/18 14:49:15;;;;;;;1.00;0.60;;;21.90;1.00;;;;;;8339335;28;20186;-76
2022/05/18 14:53:27;;;;;;;1.43;0.70;;;21.90;1.00;;;;;;8343127;28;20182;-78
2022/05/18 14:57:35;;;;;;;3.00;0.87;;;21.90;1.00;;;;;;8322526;28;20206;-77
2022/05/18 15:02:05;;;;;;;2.40;0.77;;;21.90;1.00;;;;;;8331503;28;20244;-80
2022/05/18 15:06:08;;;;;;;1.30;0.70;;;21.90;1.00;;;;;;8325580;28;20617;-79
2022/05/18 15:10:24;;;;;;;1.37;0.83;;;22.00;1.00;;;;;;8325419;28;20193;-79
2022/05/18 15:14:37;;;;;;;1.67;0.90;;;22.00;1.00;;;;;;8316517;28;20194;-76
2022/05/18 15:18:42;;;;;;;2.23;0.90;;;21.90;1.00;;;;;;8337121;28;20473;-76
2022/05/18 15:22:50;;;;;;;2.53;0.70;;;21.80;1.00;;;;;;8320519;28;20210;-78
2022/05/18 15:26:53;;;;;;;2.17;0.80;;;21.80;1.00;;;;;;8337310;28;20194;-77
2022/05/18 15:31:37;;;;;;;1.10;0.70;;;21.70;1.00;;;;;;8324446;28;20244;-79
2022/05/18 15:35:44;;;;;;;1.90;0.80;;;21.70;1.00;;;;;;8319302;28;20273;-76
2022/05/18 15:39:44;;;;;;;4.83;1.20;;;21.80;1.00;;;;;;8326512;28;20202;-75
2022/05/18 15:43:45;;;;;;;3.43;0.90;;;21.80;1.00;;;;;;8321307;28;20189;-76
2022/05/18 15:47:59;;;;;;;2.10;0.90;;;21.70;1.00;;;;;;8320968;28;20206;-79
2022/05/18 15:52:01;;;;;;;1.87;0.60;;;21.70;1.00;;;;;;8336727;28;20226;-76
2022/05/18 15:56:06;;;;;;;1.13;0.80;;;21.60;1.00;;;;;;8319991;28;20396;-80
2022/05/18 16:00:10;;;;;;;2.63;0.90;;;21.60;1.00;;;;;;8343594;28;20212;-77
2022/05/18 16:04:11;;;;;;;1.90;0.77;;;21.50;1.00;;;;;;8325021;28;20274;-80
2022/05/18 16:08:12;;;;;;;3.67;0.80;;;21.40;1.00;;;;;;8323559;28;20186;-76
2022/05/18 16:12:15;;;;;;;2.50;0.80;;;21.40;1.00;;;;;;8326768;28;20193;-77
2022/05/18 16:16:17;;;;;;;2.80;0.90;;;21.30;1.00;;;;;;8347999;28;20210;-80
2022/05/18 16:20:19;;;;;;;1.57;0.97;;;21.30;1.00;;;;;;8344399;28;20178;-76
2022/05/18 16:24:26;;;;;;;1.40;0.70;;;21.20;1.00;;;;;;8326971;28;20187;-76
2022/05/18 16:28:29;;;;;;;0.93;0.60;;;21.20;1.00;;;;;;8344848;28;20222;-76
2022/05/18 16:32:30;;;;;;;1.90;0.80;;;21.10;1.00;;;;;;8324160;28;20274;-77
2022/05/18 16:36:31;;;;;;;1.43;0.60;;;21.00;1.00;;;;;;8328251;28;20198;-79
2022/05/18 16:40:32;;;;;;;1.37;0.80;;;20.90;1.00;;;;;;8325238;28;20198;-81
2022/05/18 16:44:32;;;;;;;1.03;0.50;;;20.90;1.00;;;;;;8329959;28;20265;-76
2022/05/18 16:48:37;;;;;;;1.77;0.80;;;20.80;1.00;;;;;;8330164;28;20182;-80
2022/05/18 16:52:41;;;;;;;6.70;1.10;;;20.70;1.00;;;;;;8317279;28;20241;-77
2022/05/18 16:56:42;;;;;;;2.17;0.77;;;20.60;1.00;;;;;;8321427;28;20213;-78
2022/05/18 17:00:43;;;;;;;4.70;0.90;;;20.60;1.00;;;;;;8344979;28;20177;-76
2022/05/18 17:05:57;;;;;;;2.87;0.70;;;20.60;1.00;;;;;;8332704;28;20202;-77
2022/05/18 17:09:06;;;;;;;2.77;0.70;;;20.50;1.00;;;;;;8338080;28;20188;-75
2022/05/18 17:13:06;;;;;;;1.87;0.80;;;20.50;1.00;;;;;;8327189;28;20179;-79
2022/05/18 17:17:12;;;;;;;1.57;0.80;;;20.50;1.00;;;;;;8326908;28;20242;-79
2022/05/18 17:21:14;;;;;;;1.23;0.70;;;20.70;1.00;;;;;;8329552;28;20182;-80
2022/05/18 17:25:15;;;;;;;2.07;0.90;;;21.50;1.00;;;;;;8320415;28;20197;-80
2022/05/18 17:29:29;;;;;;;2.83;0.60;;;22.40;1.00;;;;;;8320732;28;20293;-76
2022/05/18 17:33:31;;;;;;;1.47;0.67;;;23.20;1.00;;;;;;8324655;28;20179;-78
2022/05/18 17:37:32;;;;;;;1.43;0.80;;;24.00;1.00;;;;;;8324251;28;20222;-76
2022/05/18 17:41:33;;;;;;;1.20;0.80;;;24.50;1.00;;;;;;8330454;28;20201;-76
2022/05/18 17:45:33;;;;;;;6.10;1.10;;;24.80;1.00;;;;;;8326903;28;20241;-76
2022/05/18 17:49:36;;;;;;;1.53;0.87;;;25.30;1.00;;;;;;8333179;28;20182;-76
2022/05/18 17:53:37;;;;;;;1.38;0.70;;;25.80;1.00;;;;;;8327297;28;20184;-76
2022/05/18 17:57:38;;;;;;;1.85;0.82;;;26.30;1.00;;;;;;8328821;28;20194;-77
2022/05/18 18:01:40;;;;;;;1.42;0.80;;;26.50;99.90;;;;;;8322396;28;20266;-76
2022/05/18 18:05:40;;;;;;;2.63;0.90;;;26.50;99.90;;;;;;8327250;28;20179;-80
2022/05/18 18:09:42;;;;;;;3.10;0.68;;;26.50;99.90;;;;;;8338150;28;20225;-76
2022/05/18 18:13:43;;;;;;;0.80;0.50;;;26.20;99.90;;;;;;8323178;28;20185;-76
2022/05/18 18:17:48;;;;;;;1.00;0.50;;;25.40;99.90;;;;;;8321089;28;20257;-77
2022/05/18 18:21:49;;;;;;;0.90;0.50;;;25.00;99.90;;;;;;8310557;28;20190;-77
2022/05/18 18:25:51;;;;;;;2.23;0.77;;;24.50;99.90;;;;;;8322761;28;20187;-78
2022/05/18 18:29:52;;;;;;;3.80;1.00;;;24.00;99.90;;;;;;8326329;28;20277;-77
2022/05/18 18:33:55;;;;;;;1.63;0.83;;;23.40;1.00;;;;;;8329845;28;20183;-76
2022/05/18 18:37:56;;;;;;;2.40;1.40;;;22.40;99.90;;;;;;8327763;28;20228;-76
2022/05/18 18:41:57;;;;;;;2.30;1.10;;;21.10;99.90;;;;;;8323208;28;20206;-79
2022/05/18 18:54:41;;;;;;;3.33;1.10;;;18.90;1.00;;;;;;8341354;28;20260;-81
2022/05/18 18:54:53;;;;;;;3.17;0.90;;;18.10;1.00;;;;;;8343792;28;20182;-76
2022/05/18 18:58:54;;;;;;;2.43;0.97;;;17.40;1.00;;;;;;8340181;28;20307;-78
2022/05/18 19:02:55;;;;;;;2.57;1.00;;;16.70;1.00;;;;;;8325999;28;20210;-76
2022/05/18 19:07:02;;;;;;;1.47;0.83;;;16.20;1.00;;;;;;8322943;28;20235;-79
2022/05/18 19:11:03;;;;;;;1.83;0.83;;;15.70;1.00;;;;;;8332635;28;20188;-77
2022/05/18 19:15:08;;;;;;;1.17;0.80;;;15.20;1.00;;;;;;8318542;28;20196;-77
2022/05/18 19:19:09;;;;;;;1.80;0.77;;;14.80;1.00;;;;;;8319372;28;20214;-77
2022/05/18 19:23:16;;;;;;;1.43;0.60;;;14.60;1.00;;;;;;8324277;28;20212;-76
2022/05/18 19:27:17;;;;;;;1.10;0.90;;;14.30;1.00;;;;;;8323125;28;20489;-77
2022/05/18 19:31:19;;;;;;;1.47;0.80;;;13.90;1.00;;;;;;8319668;28;20209;-77
2022/05/18 19:35:21;;;;;;;3.53;0.97;;;13.60;1.00;;;;;;8314758;28;20188;-78
2022/05/18 19:39:22;;;;;;;4.30;1.00;;;13.30;1.00;;;;;;8327055;28;20295;-78
2022/05/18 19:43:34;;;;;;;3.30;0.70;;;13.10;1.00;;;;;;8321053;28;20236;-77
2022/05/18 19:47:36;;;;;;;1.73;1.37;;;12.90;1.00;;;;;;8319118;28;20182;-77
2022/05/18 19:51:37;;;;;;;2.67;0.90;;;12.80;1.00;;;;;;8322188;28;20187;-77
2022/05/18 19:55:39;;;;;;;1.87;1.17;;;12.60;1.00;;;;;;8346557;28;20181;-77
2022/05/18 19:59:40;;;;;;;2.50;1.60;;;12.40;1.00;;;;;;8331408;28;20189;-77
2022/05/18 20:03:41;;;;;;;3.37;1.63;;;12.30;1.00;;;;;;8330332;28;20178;-80
2022/05/18 20:07:42;;;;;;;1.93;1.50;;;12.20;1.00;;;;;;8327172;28;20240;-78
2022/05/18 20:11:43;;;;;;;2.23;1.77;;;12.10;1.00;;;;;;8346728;28;20239;-77
2022/05/18 20:15:50;;;;;;;2.40;1.73;;;12.00;1.00;;;;;;8330714;28;20242;-78
2022/05/18 20:19:51;;;;;;;3.27;1.60;;;11.80;1.00;;;;;;8327490;28;20190;-77
2022/05/18 20:23:52;;;;;;;3.63;1.67;;;11.70;26.30;;;;;;8324770;28;20274;-78
2022/05/18 20:27:59;;;;;;;3.40;1.70;;;11.60;24.00;;;;;;8330773;28;20230;-78
2022/05/18 20:32:03;;;;;;;3.37;1.90;;;11.40;33.60;;;;;;8349791;28;20178;-78
2022/05/18 20:36:04;;;;;;;3.43;1.10;;;11.30;65.30;;;;;;8325073;28;20296;-78
2022/05/18 20:40:06;;;;;;;5.23;1.53;;;11.20;79.60;;;;;;8324197;28;20197;-77
2022/05/18 20:44:11;;;;;;;2.77;1.60;;;11.10;66.20;;;;;;8316980;28;20212;-77
2022/05/18 20:48:22;;;;;;;3.30;1.43;;;11.00;73.60;;;;;;8322591;28;20194;-78
2022/05/18 20:52:23;;;;;;;5.27;1.60;;;10.90;83.80;;;;;;8325687;28;20205;-77
2022/05/18 20:56:28;;;;;;;2.93;1.77;;;10.80;99.90;;;;;;8340781;28;20201;-77
2022/05/18 21:00:32;;;;;;;3.80;1.70;;;10.70;99.90;;;;;;8345418;28;20178;-77
2022/05/18 21:04:33;;;;;;;3.40;2.00;;;10.60;99.90;;;;;;8343578;28;20178;-79
2022/05/18 21:08:38;;;;;;;4.60;1.90;;;10.50;99.90;;;;;;8339980;28;20269;-77
2022/05/18 21:12:41;;;;;;;3.10;1.60;;;10.40;99.90;;;;;;8338330;28;20202;-77
2022/05/18 21:16:53;;;;;;;3.83;1.80;;;10.30;99.90;;;;;;8313374;28;20213;-77
2022/05/18 21:20:54;;;;;;;4.80;1.93;;;10.20;99.90;;;;;;8323982;28;20634;-78
2022/05/18 21:24:55;;;;;;;4.37;2.70;;;10.20;99.90;;;;;;8330733;28;20193;-77
2022/05/18 21:28:56;;;;;;;5.70;3.03;;;10.10;99.90;;;;;;8343678;28;20200;-79
2022/05/18 21:32:57;;;;;;;5.73;2.67;;;10.10;99.90;;;;;;8324642;28;20225;-78
2022/05/18 21:36:58;;;;;;;6.93;3.80;;;10.10;99.90;;;;;;8331653;28;20216;-78
2022/05/18 21:40:59;;;;;;;6.57;3.33;;;10.00;99.90;;;;;;8331913;28;20204;-78
2022/05/18 21:44:59;;;;;;;18.50;6.60;;;9.90;99.90;;;;;;8344294;28;20205;-78
2022/05/18 21:49:01;;;;;;;19.67;7.83;;;9.70;99.90;;;;;;8342500;28;20192;-77
2022/05/18 21:53:02;;;;;;;25.07;10.90;;;9.60;99.90;;;;;;8314918;28;20309;-78
2022/05/18 21:57:03;;;;;;;28.90;12.47;;;9.40;99.90;;;;;;8335748;28;20205;-78